sensor_id;sensor_type;location;lat;lon;timestamp;pressure;altitude;pressure_sealevel;temperature;humidity
9235;BME280;4652;42.716;23.218;2023-02-26T04:18:36;93435.38;;;12.82;56.69
9235;BME280;4652;42.716;23.218;2023-02-26T04:25:18;93434.06;;;12.88;57.04
9235;BME280;4652;42.716;23.218;2023-02-26T04:32:00;93396.66;;;12.90;56.66
9235;BME280;4652;42.716;23.218;2023-02-26T04:38:43;93415.34;;;12.95;56.45
9235;BME280;4652;42.716;23.218;2023-02-26T04:45:25;93405.78;;;12.98;55.88
9235;BME280;4652;42.716;23.218;2023-02-26T04:52:07;93393.66;;;12.92;56.30
9235;BME280;4652;42.716;23.218;2023-02-26T04:58:50;93370.81;;;12.89;56.00
9235;BME280;4652;42.716;23.218;2023-02-26T05:05:32;93365.47;;;12.93;56.33
9235;BME280;4652;42.716;23.218;2023-02-26T05:12:15;93356.47;;;13.01;55.55
9235;BME280;4652;42.716;23.218;2023-02-26T05:18:58;93324.09;;;12.77;56.05
9235;BME280;4652;42.716;23.218;2023-02-26T05:25:40;93312.59;;;12.92;55.43
9235;BME280;4652;42.716;23.218;2023-02-26T05:32:22;93332.38;;;12.96;55.00
9235;BME280;4652;42.716;23.218;2023-02-26T05:39:05;93297.19;;;12.80;54.87
9235;BME280;4652;42.716;23.218;2023-02-26T05:45:48;93330.81;;;13.07;54.54
9235;BME280;4652;42.716;23.218;2023-02-26T05:52:31;93346.44;;;13.26;53.55
9235;BME280;4652;42.716;23.218;2023-02-26T05:59:14;93285.97;;;13.30;52.11
9235;BME280;4652;42.716;23.218;2023-02-26T06:05:56;93326.38;;;13.67;51.67
9235;BME280;4652;42.716;23.218;2023-02-26T06:12:38;93353.59;;;13.86;51.33
9235;BME280;4652;42.716;23.218;2023-02-26T06:19:22;93335.72;;;14.40;48.81
9235;BME280;4652;42.716;23.218;2023-02-26T06:26:04;93347.16;;;14.65;48.51
9235;BME280;4652;42.716;23.218;2023-02-26T06:32:46;93335.53;;;14.64;47.97
9235;BME280;4652;42.716;23.218;2023-02-26T06:39:31;93356.16;;;14.85;47.36
9235;BME280;4652;42.716;23.218;2023-02-26T06:46:13;93327.25;;;15.08;46.59
9235;BME280;4652;42.716;23.218;2023-02-26T06:52:55;93273.44;;;14.91;46.59
9235;BME280;4652;42.716;23.218;2023-02-26T06:59:38;93294.09;;;15.49;46.29
9235;BME280;4652;42.716;23.218;2023-02-26T07:06:20;93321.38;;;15.56;45.97
9235;BME280;4652;42.716;23.218;2023-02-26T07:13:02;93324.75;;;15.34;46.05
9235;BME280;4652;42.716;23.218;2023-02-26T07:19:46;93378.16;;;15.84;45.15
9235;BME280;4652;42.716;23.218;2023-02-26T07:26:28;93363.31;;;16.39;45.14
9235;BME280;4652;42.716;23.218;2023-02-26T07:33:10;93343.31;;;16.28;44.61
9235;BME280;4652;42.716;23.218;2023-02-26T07:39:53;93354.63;;;16.11;45.24
9235;BME280;4652;42.716;23.218;2023-02-26T07:46:35;93354.34;;;16.16;45.47
9235;BME280;4652;42.716;23.218;2023-02-26T07:53:17;93376.13;;;16.19;45.13
9235;BME280;4652;42.716;23.218;2023-02-26T08:00:01;93382.78;;;16.22;45.34
9235;BME280;4652;42.716;23.218;2023-02-26T08:08:05;93341.31;;;16.25;44.86
9235;BME280;4652;42.716;23.218;2023-02-26T14:25:18;93486.25;;;15.63;50.51
9235;BME280;4652;42.716;23.218;2023-02-26T14:32:13;93506.41;;;15.46;51.57
9235;BME280;4652;42.716;23.218;2023-02-26T14:38:57;93512.84;;;15.26;52.46
9235;BME280;4652;42.716;23.218;2023-02-26T14:45:45;93534.97;;;15.12;53.28
9235;BME280;4652;42.716;23.218;2023-02-26T14:52:46;93528.00;;;14.84;54.40
9235;BME280;4652;42.716;23.218;2023-02-26T14:59:50;93549.22;;;14.66;55.37
9235;BME280;4652;42.716;23.218;2023-02-26T15:06:54;93548.03;;;14.51;56.23
9235;BME280;4652;42.716;23.218;2023-02-26T15:13:51;93578.53;;;14.48;56.77
9235;BME280;4652;42.716;23.218;2023-02-26T15:20:44;93578.09;;;14.34;57.14
9235;BME280;4652;42.716;23.218;2023-02-26T15:27:31;93589.47;;;14.40;56.93
9235;BME280;4652;42.716;23.218;2023-02-26T15:34:14;93592.19;;;14.40;57.18
9235;BME280;4652;42.716;23.218;2023-02-26T15:41:01;93617.16;;;14.33;57.60
9235;BME280;4652;42.716;23.218;2023-02-26T15:47:47;93603.16;;;14.07;58.80
9235;BME280;4652;42.716;23.218;2023-02-26T15:54:34;93640.63;;;14.05;59.06
9235;BME280;4652;42.716;23.218;2023-02-26T16:01:19;93651.78;;;13.91;59.57
9235;BME280;4652;42.716;23.218;2023-02-26T16:08:03;93648.63;;;13.77;60.38
9235;BME280;4652;42.716;23.218;2023-02-26T16:14:49;93660.00;;;13.71;60.83
9235;BME280;4652;42.716;23.218;2023-02-26T16:21:35;93644.41;;;13.43;61.37
9235;BME280;4652;42.716;23.218;2023-02-26T16:28:22;93660.97;;;13.54;61.23
9235;BME280;4652;42.716;23.218;2023-02-26T16:35:11;93662.88;;;13.41;61.32
9235;BME280;4652;42.716;23.218;2023-02-26T16:42:11;93671.88;;;13.45;61.51
9235;BME280;4652;42.716;23.218;2023-02-26T16:48:59;93691.09;;;13.52;61.44
9235;BME280;4652;42.716;23.218;2023-02-26T16:55:48;93691.53;;;13.54;61.36
9235;BME280;4652;42.716;23.218;2023-02-26T17:02:33;93702.78;;;13.44;61.85
9235;BME280;4652;42.716;23.218;2023-02-26T17:09:35;93698.72;;;13.50;61.92
9235;BME280;4652;42.716;23.218;2023-02-26T17:16:18;93722.59;;;13.48;62.22
9235;BME280;4652;42.716;23.218;2023-02-26T17:23:04;93716.53;;;13.51;62.37
9235;BME280;4652;42.716;23.218;2023-02-26T17:29:50;93712.53;;;13.37;62.79
9235;BME280;4652;42.716;23.218;2023-02-26T17:36:32;93697.31;;;13.32;62.96
9235;BME280;4652;42.716;23.218;2023-02-26T17:43:14;93710.41;;;13.30;63.35
9235;BME280;4652;42.716;23.218;2023-02-26T17:49:57;93720.66;;;13.37;63.88
9235;BME280;4652;42.716;23.218;2023-02-26T17:56:40;93736.13;;;13.48;63.42
9235;BME280;4652;42.716;23.218;2023-02-26T18:03:24;93697.88;;;13.05;64.20
9235;BME280;4652;42.716;23.218;2023-02-26T18:10:10;93707.72;;;13.10;64.95
9235;BME280;4652;42.716;23.218;2023-02-26T18:16:56;93699.06;;;13.16;65.16
9235;BME280;4652;42.716;23.218;2023-02-26T18:23:38;93716.50;;;12.98;65.83
9235;BME280;4652;42.716;23.218;2023-02-26T18:30:24;93744.47;;;13.02;65.50
9235;BME280;4652;42.716;23.218;2023-02-26T18:37:10;93730.97;;;13.02;66.08
9235;BME280;4652;42.716;23.218;2023-02-26T18:43:53;93736.94;;;12.87;66.44
9235;BME280;4652;42.716;23.218;2023-02-26T18:50:36;93740.41;;;12.75;67.74
9235;BME280;4652;42.716;23.218;2023-02-26T18:57:18;93760.06;;;12.76;68.45
9235;BME280;4652;42.716;23.218;2023-02-26T19:04:00;93758.69;;;12.70;69.39
9235;BME280;4652;42.716;23.218;2023-02-26T19:10:44;93756.31;;;12.68;68.77
9235;BME280;4652;42.716;23.218;2023-02-26T19:17:26;93767.72;;;12.74;69.15
9235;BME280;4652;42.716;23.218;2023-02-26T19:24:10;93799.88;;;12.67;69.04
9235;BME280;4652;42.716;23.218;2023-02-26T19:30:54;93797.78;;;12.72;69.34
9235;BME280;4652;42.716;23.218;2023-02-26T19:37:36;93786.56;;;12.62;70.46
9235;BME280;4652;42.716;23.218;2023-02-26T19:44:18;93782.66;;;12.51;71.40
9235;BME280;4652;42.716;23.218;2023-02-26T19:51:03;93801.16;;;12.31;73.73
9235;BME280;4652;42.716;23.218;2023-02-26T19:57:45;93793.34;;;12.01;75.32
9235;BME280;4652;42.716;23.218;2023-02-26T20:08:06;93842.91;;;11.79;70.42
9235;BME280;4652;42.716;23.218;2023-02-26T20:14:48;93834.63;;;11.93;67.54
9235;BME280;4652;42.716;23.218;2023-02-26T20:21:30;93860.47;;;12.02;67.10
9235;BME280;4652;42.716;23.218;2023-02-26T20:28:14;93874.28;;;12.09;69.50
9235;BME280;4652;42.716;23.218;2023-02-26T20:34:56;93849.91;;;12.26;69.46
9235;BME280;4652;42.716;23.218;2023-02-26T20:41:38;93859.63;;;12.19;79.64
9235;BME280;4652;42.716;23.218;2023-02-26T20:48:22;93877.06;;;12.21;84.62
9235;BME280;4652;42.716;23.218;2023-02-26T20:55:05;93866.91;;;12.27;88.51
9235;BME280;4652;42.716;23.218;2023-02-26T21:01:48;93838.56;;;12.50;85.97
9235;BME280;4652;42.716;23.218;2023-02-26T21:08:32;93859.47;;;12.91;86.12
9235;BME280;4652;42.716;23.218;2023-02-26T21:15:14;93875.28;;;13.01;83.99
9235;BME280;4652;42.716;23.218;2023-02-26T21:21:57;93865.53;;;12.88;97.78
9235;BME280;4652;42.716;23.218;2023-02-26T21:28:42;93898.44;;;12.44;79.30
9235;BME280;4652;42.716;23.218;2023-02-26T21:35:33;93890.78;;;11.99;89.45
9235;BME280;4652;42.716;23.218;2023-02-26T21:42:15;93911.41;;;11.61;95.83
9235;BME280;4652;42.716;23.218;2023-02-26T21:48:59;93894.25;;;11.23;100.00
9235;BME280;4652;42.716;23.218;2023-02-26T21:55:41;93901.09;;;12.06;100.00
9235;BME280;4652;42.716;23.218;2023-02-26T22:02:23;93895.94;;;12.30;100.00
9235;BME280;4652;42.716;23.218;2023-02-26T22:09:07;93885.72;;;12.53;100.00
9235;BME280;4652;42.716;23.218;2023-02-26T22:15:49;93879.25;;;12.45;100.00
9235;BME280;4652;42.716;23.218;2023-02-26T22:22:30;93895.56;;;12.49;100.00
9235;BME280;4652;42.716;23.218;2023-02-26T22:29:14;93883.94;;;12.57;100.00
9235;BME280;4652;42.716;23.218;2023-02-26T22:35:57;93893.81;;;12.53;100.00
9235;BME280;4652;42.716;23.218;2023-02-26T22:42:40;93905.75;;;12.43;100.00
9235;BME280;4652;42.716;23.218;2023-02-26T22:49:24;93897.63;;;12.52;100.00
9235;BME280;4652;42.716;23.218;2023-02-26T22:56:06;93895.28;;;12.42;100.00
9235;BME280;4652;42.716;23.218;2023-02-26T23:02:49;93889.25;;;12.45;100.00
9235;BME280;4652;42.716;23.218;2023-02-26T23:09:33;93884.72;;;12.19;100.00
9235;BME280;4652;42.716;23.218;2023-02-26T23:16:15;93891.38;;;12.22;100.00
9235;BME280;4652;42.716;23.218;2023-02-26T23:22:57;93899.19;;;12.06;100.00
9235;BME280;4652;42.716;23.218;2023-02-26T23:29:42;93908.69;;;12.12;100.00
9235;BME280;4652;42.716;23.218;2023-02-26T23:36:25;93906.47;;;12.14;100.00
9235;BME280;4652;42.716;23.218;2023-02-26T23:43:07;93922.66;;;12.14;100.00
9235;BME280;4652;42.716;23.218;2023-02-26T23:49:51;93930.44;;;12.07;100.00
9235;BME280;4652;42.716;23.218;2023-02-26T23:56:33;93908.03;;;12.15;100.00
